createdAt,value
2018-03-01T00:02:10.666Z,45.35
2018-03-01T00:04:43.278Z,44.98
2018-03-01T00:07:15.802Z,46.04
2018-03-01T00:09:48.367Z,45.63
2018-03-01T00:12:20.888Z,44.91
2018-03-01T00:14:53.446Z,45.63
2018-03-01T00:17:25.967Z,45.04
2018-03-01T00:19:58.503Z,45.86
2018-03-01T00:22:36.886Z,45.70
2018-03-01T00:25:09.397Z,45.37
2018-03-01T00:27:41.912Z,45.79
2018-03-01T00:30:14.521Z,45.53
2018-03-01T00:32:47.040Z,45.41
2018-03-01T00:35:19.593Z,45.11
2018-03-01T00:37:52.108Z,45.94
2018-03-01T00:40:24.682Z,46.57
2018-03-01T00:42:57.226Z,45.44
2018-03-01T00:45:29.768Z,44.80
2018-03-01T00:48:02.289Z,45.42
2018-03-01T00:50:34.808Z,45.64
2018-03-01T00:53:07.335Z,44.65
2018-03-01T00:55:39.893Z,44.58
2018-03-01T00:58:12.409Z,44.59
2018-03-01T01:00:44.947Z,45.68
2018-03-01T01:03:17.482Z,44.65
2018-03-01T01:05:50.037Z,44.51
2018-03-01T01:08:22.547Z,45.25
2018-03-01T01:10:55.071Z,44.92
2018-03-01T01:13:27.587Z,44.99
2018-03-01T01:16:00.150Z,44.85
2018-03-01T01:18:32.665Z,47.85
2018-03-01T01:21:05.196Z,46.17
2018-03-01T01:23:37.722Z,45.47
2018-03-01T01:26:10.275Z,45.83
2018-03-01T01:28:42.781Z,46.14
2018-03-01T01:31:15.377Z,46.14
2018-03-01T01:33:48.006Z,46.99
2018-03-01T01:36:20.557Z,47.27
2018-03-01T01:38:53.096Z,46.92
2018-03-01T01:41:25.633Z,47.97
2018-03-01T01:43:58.131Z,46.41
2018-03-01T01:46:30.681Z,46.67
2018-03-01T01:49:03.204Z,47.40
2018-03-01T01:51:35.749Z,46.49
2018-03-01T01:54:08.302Z,46.98
2018-03-01T01:56:40.842Z,46.74
2018-03-01T01:59:13.355Z,47.17
2018-03-01T02:01:45.874Z,47.06
2018-03-01T02:04:18.415Z,46.23
2018-03-01T02:06:51.001Z,46.38
2018-03-01T02:09:23.506Z,47.00
2018-03-01T02:11:56.035Z,46.32
2018-03-01T02:14:28.544Z,47.18
2018-03-01T02:17:01.085Z,47.40
2018-03-01T02:19:33.609Z,48.29
2018-03-01T02:22:06.164Z,47.67
2018-03-01T02:24:38.820Z,47.20
2018-03-01T02:27:11.356Z,46.30
2018-03-01T02:29:43.902Z,47.68
2018-03-01T02:32:16.453Z,48.27
2018-03-01T02:34:48.976Z,47.25
2018-03-01T02:37:21.501Z,46.68
2018-03-01T02:39:54.069Z,46.68
2018-03-01T02:42:26.602Z,49.31
2018-03-01T02:44:59.109Z,46.64
2018-03-01T02:47:31.656Z,46.56
2018-03-01T02:50:04.163Z,49.26
2018-03-01T02:52:36.701Z,48.96
2018-03-01T02:55:09.213Z,47.42
2018-03-01T02:57:41.745Z,46.67
2018-03-01T03:00:14.250Z,46.39
2018-03-01T03:02:46.795Z,47.28
2018-03-01T03:05:19.319Z,46.59
2018-03-01T03:07:51.853Z,45.96
2018-03-01T03:10:24.367Z,46.38
2018-03-01T03:12:56.894Z,45.87
2018-03-01T03:15:29.425Z,46.60
2018-03-01T03:18:01.950Z,46.69
2018-03-01T03:20:34.485Z,46.66
2018-03-01T03:23:08.017Z,47.69
2018-03-01T03:25:40.529Z,46.82
2018-03-01T03:28:13.062Z,47.42
2018-03-01T03:30:45.568Z,46.68
2018-03-01T03:33:18.086Z,47.81
2018-03-01T03:35:50.627Z,46.87
2018-03-01T03:38:23.163Z,46.65
2018-03-01T03:40:55.689Z,46.55
2018-03-01T03:43:28.199Z,46.17
2018-03-01T03:46:00.757Z,46.92
2018-03-01T03:48:33.298Z,47.89
2018-03-01T03:51:05.842Z,47.68
2018-03-01T03:53:38.383Z,46.95
2018-03-01T03:56:10.916Z,47.41
2018-03-01T03:58:43.754Z,47.09
2018-03-01T04:01:16.284Z,46.66
2018-03-01T04:03:48.805Z,47.05
2018-03-01T04:06:21.348Z,48.21
2018-03-01T04:08:53.891Z,47.89
2018-03-01T04:11:26.423Z,47.61
2018-03-01T04:13:59.024Z,47.48
2018-03-01T04:16:37.819Z,49.38
2018-03-01T04:19:10.331Z,48.40
2018-03-01T04:21:43.793Z,47.33
2018-03-01T04:24:16.310Z,48.70
2018-03-01T04:26:48.848Z,48.60
2018-03-01T04:29:21.414Z,48.58
2018-03-01T04:31:53.948Z,48.21
2018-03-01T04:34:26.473Z,47.64
2018-03-01T04:36:59.017Z,47.94
2018-03-01T04:39:31.524Z,47.67
2018-03-01T04:42:04.069Z,47.38
2018-03-01T04:44:37.052Z,48.67
2018-03-01T04:47:09.632Z,49.58
2018-03-01T04:49:42.141Z,47.48
2018-03-01T04:52:14.698Z,48.03
2018-03-01T04:54:47.213Z,47.69
2018-03-01T04:57:19.743Z,48.26
2018-03-01T04:59:53.378Z,47.60
2018-03-01T05:02:25.897Z,47.78
2018-03-01T05:04:58.407Z,48.20
2018-03-01T05:07:30.956Z,47.77
2018-03-01T05:10:03.494Z,48.05
2018-03-01T05:12:36.056Z,48.71
2018-03-01T05:15:08.572Z,49.52
2018-03-01T05:17:41.104Z,48.10
2018-03-01T05:20:13.620Z,47.99
2018-03-01T05:22:46.156Z,48.11
2018-03-01T05:25:18.681Z,48.85
2018-03-01T05:27:51.226Z,47.94
2018-03-01T05:30:23.744Z,47.77
2018-03-01T05:32:56.309Z,48.30
2018-03-01T05:35:28.827Z,49.93
2018-03-01T05:38:01.351Z,49.33
2018-03-01T05:40:33.883Z,47.59
2018-03-01T05:43:06.417Z,48.45
2018-03-01T05:45:38.948Z,48.01
2018-03-01T05:48:11.474Z,47.66
2018-03-01T05:50:43.988Z,47.78
2018-03-01T05:53:16.529Z,48.04
2018-03-01T05:55:49.049Z,49.28
2018-03-01T05:58:21.606Z,48.63
2018-03-01T06:00:54.124Z,48.98
2018-03-01T06:03:26.651Z,48.46
2018-03-01T06:05:59.187Z,48.38
2018-03-01T06:08:31.704Z,49.30
2018-03-01T06:11:04.202Z,48.22
2018-03-01T06:13:36.724Z,48.57
2018-03-01T06:16:09.236Z,49.53
2018-03-01T06:18:41.751Z,48.16
2018-03-01T06:21:14.280Z,50.31
2018-03-01T06:23:46.817Z,49.50
2018-03-01T06:26:19.334Z,48.86
2018-03-01T06:28:51.879Z,49.16
2018-03-01T06:31:24.392Z,49.98
2018-03-01T06:33:56.917Z,49.37
2018-03-01T06:36:29.426Z,48.88
2018-03-01T06:39:01.964Z,48.68
2018-03-01T06:41:39.591Z,49.76
2018-03-01T06:44:12.152Z,50.12
2018-03-01T06:46:44.689Z,50.08
2018-03-01T06:49:17.233Z,50.13
2018-03-01T06:51:49.794Z,48.95
2018-03-01T06:54:22.344Z,52.42
2018-03-01T06:56:54.869Z,51.24
2018-03-01T06:59:27.396Z,50.78
2018-03-01T07:02:00.004Z,49.52
2018-03-01T07:04:32.505Z,50.50
2018-03-01T07:07:05.027Z,49.57
2018-03-01T07:09:37.556Z,51.13
2018-03-01T07:12:10.095Z,49.54
2018-03-01T07:14:42.629Z,51.89
2018-03-01T07:17:15.224Z,50.29
2018-03-01T07:19:47.741Z,49.43
2018-03-01T07:22:20.262Z,50.15
2018-03-01T07:24:52.783Z,53.24
2018-03-01T07:27:25.291Z,49.86
2018-03-01T07:29:57.796Z,50.18
2018-03-01T07:32:30.339Z,49.52
2018-03-01T07:35:02.841Z,50.54
2018-03-01T07:37:35.376Z,50.64
2018-03-01T07:40:07.923Z,49.91
2018-03-01T07:42:40.437Z,49.18
2018-03-01T07:45:12.952Z,50.02
2018-03-01T07:47:45.495Z,50.94
2018-03-01T07:50:18.005Z,50.17
2018-03-01T07:52:50.541Z,50.02
2018-03-01T07:55:23.102Z,49.77
2018-03-01T07:57:55.652Z,50.64
2018-03-01T08:00:28.248Z,49.66
2018-03-01T08:03:03.096Z,49.77
2018-03-01T08:05:35.865Z,48.35
2018-03-01T08:08:08.421Z,48.06
2018-03-01T08:10:40.937Z,46.62
2018-03-01T08:13:13.466Z,47.09
2018-03-01T08:15:45.992Z,47.96
2018-03-01T08:18:18.541Z,47.27
2018-03-01T08:20:51.045Z,49.77
2018-03-01T08:23:23.593Z,48.48
2018-03-01T08:25:56.111Z,46.60
2018-03-01T08:28:28.640Z,46.78
2018-03-01T08:31:01.148Z,47.23
2018-03-01T08:33:34.100Z,47.76
2018-03-01T08:36:07.960Z,46.93
2018-03-01T08:38:40.491Z,46.48
2018-03-01T08:41:13.039Z,46.22
2018-03-01T08:43:45.606Z,46.22
2018-03-01T08:46:18.148Z,45.99
2018-03-01T08:48:50.680Z,46.20
2018-03-01T08:51:23.193Z,46.89
2018-03-01T08:53:55.710Z,45.88
2018-03-01T08:56:28.210Z,44.35
2018-03-01T08:59:00.758Z,45.59
2018-03-01T09:01:33.264Z,45.30
2018-03-01T09:04:05.796Z,43.36
2018-03-01T09:06:38.296Z,43.38
2018-03-01T09:09:10.815Z,42.78
2018-03-01T09:11:43.308Z,41.96
2018-03-01T09:14:15.825Z,41.78
2018-03-01T09:16:48.330Z,41.50
2018-03-01T09:19:20.866Z,42.46
2018-03-01T09:21:53.367Z,41.09
2018-03-01T09:24:25.900Z,40.30
2018-03-01T09:26:58.422Z,40.73
2018-03-01T09:29:30.941Z,41.10
2018-03-01T09:32:03.435Z,40.82
2018-03-01T09:34:35.957Z,40.78
2018-03-01T09:37:08.478Z,40.48
2018-03-01T09:39:40.991Z,39.63
2018-03-01T09:42:13.502Z,41.59
2018-03-01T09:44:46.018Z,39.18
2018-03-01T09:47:18.535Z,38.99
2018-03-01T09:49:51.105Z,38.93
2018-03-01T09:52:23.613Z,39.03
2018-03-01T09:54:56.148Z,38.09
2018-03-01T09:57:28.664Z,37.12
2018-03-01T10:00:01.186Z,39.72
2018-03-01T10:02:33.685Z,40.18
2018-03-01T10:05:07.229Z,38.38
2018-03-01T10:07:39.700Z,38.95
2018-03-01T10:10:12.223Z,37.59
2018-03-01T10:12:44.742Z,36.80
2018-03-01T10:15:18.550Z,37.60
2018-03-01T10:17:51.045Z,37.14
2018-03-01T10:20:23.551Z,37.23
2018-03-01T10:22:56.079Z,35.91
2018-03-01T10:25:28.597Z,35.30
2018-03-01T10:28:01.109Z,36.40
2018-03-01T10:30:33.632Z,35.75
2018-03-01T10:33:07.043Z,37.17
2018-03-01T10:35:39.580Z,36.77
2018-03-01T10:38:12.121Z,37.39
2018-03-01T10:40:44.645Z,36.74
2018-03-01T10:43:17.167Z,36.26
2018-03-01T10:45:49.667Z,35.45
2018-03-01T10:48:22.184Z,35.79
2018-03-01T10:50:54.687Z,36.34
2018-03-01T10:53:27.200Z,35.50
2018-03-01T10:55:59.691Z,35.33
2018-03-01T10:58:32.233Z,36.24
2018-03-01T11:01:19.442Z,36.98
2018-03-01T11:03:51.962Z,37.19
2018-03-01T11:06:24.478Z,35.15
2018-03-01T11:08:56.999Z,35.41
2018-03-01T11:11:29.534Z,35.03
2018-03-01T11:14:02.042Z,35.16
2018-03-01T11:16:34.556Z,35.62
2018-03-01T11:19:07.078Z,35.83
2018-03-01T11:21:39.630Z,35.06
2018-03-01T11:24:12.230Z,36.05
2018-03-01T11:26:44.740Z,35.26
2018-03-01T11:29:17.256Z,36.61
2018-03-01T11:31:49.777Z,36.42
2018-03-01T11:34:22.323Z,36.14
2018-03-01T11:36:54.839Z,36.77
2018-03-01T11:39:27.352Z,36.65
2018-03-01T11:41:59.946Z,37.58
2018-03-01T11:44:32.464Z,37.34
2018-03-01T11:47:04.985Z,37.71
2018-03-01T11:49:37.520Z,37.70
2018-03-01T11:52:10.014Z,36.12
2018-03-01T11:54:42.536Z,35.95
2018-03-01T11:57:15.047Z,36.01
2018-03-01T11:59:47.567Z,35.51
2018-03-01T12:02:20.064Z,36.49
2018-03-01T12:04:52.638Z,37.19
2018-03-01T12:07:25.147Z,37.38
2018-03-01T12:09:57.680Z,37.88
2018-03-01T12:12:30.181Z,37.43
2018-03-01T12:15:02.717Z,37.45
2018-03-01T12:17:35.205Z,36.36
2018-03-01T12:20:07.749Z,36.85
2018-03-01T12:22:40.244Z,36.71
2018-03-01T12:25:12.766Z,38.43
2018-03-01T12:27:45.267Z,35.97
2018-03-01T12:30:17.788Z,35.67
2018-03-01T12:32:50.286Z,36.34
2018-03-01T12:35:22.821Z,35.64
2018-03-01T12:37:55.317Z,34.35
2018-03-01T12:40:27.828Z,33.56
2018-03-01T12:43:00.337Z,34.11
2018-03-01T12:45:32.867Z,35.00
2018-03-01T12:48:05.363Z,34.72
2018-03-01T12:50:37.888Z,35.18
2018-03-01T12:53:10.381Z,35.24
2018-03-01T12:55:42.922Z,38.10
2018-03-01T12:58:15.436Z,36.60
2018-03-01T13:00:48.079Z,37.04
2018-03-01T13:03:20.546Z,37.25
2018-03-01T13:05:53.057Z,36.39
2018-03-01T13:08:25.564Z,36.62
2018-03-01T13:10:58.099Z,36.87
2018-03-01T13:13:30.606Z,36.37
2018-03-01T13:16:03.261Z,36.50
2018-03-01T13:18:35.760Z,36.99
2018-03-01T13:21:08.280Z,36.60
2018-03-01T13:23:40.776Z,37.04
2018-03-01T13:26:13.303Z,36.71
2018-03-01T13:28:45.801Z,37.41
2018-03-01T13:31:19.713Z,37.51
2018-03-01T13:33:58.843Z,37.13
2018-03-01T13:36:31.360Z,36.94
2018-03-01T13:39:03.864Z,36.97
2018-03-01T13:41:36.381Z,36.28
2018-03-01T13:44:08.889Z,36.75
2018-03-01T13:46:41.775Z,38.72
2018-03-01T13:49:14.280Z,37.76
2018-03-01T13:51:47.755Z,37.13
2018-03-01T13:54:20.258Z,36.51
2018-03-01T13:56:52.780Z,37.08
2018-03-01T13:59:25.281Z,37.04
2018-03-01T14:01:57.830Z,37.09
2018-03-01T14:04:30.333Z,36.59
2018-03-01T14:07:08.636Z,37.26
2018-03-01T14:09:41.165Z,36.43
2018-03-01T14:12:14.574Z,36.75
2018-03-01T14:14:47.106Z,36.84
2018-03-01T14:17:21.408Z,38.46
2018-03-01T14:20:08.795Z,38.15
2018-03-01T14:23:01.029Z,37.48
2018-03-01T14:25:33.910Z,37.08
2018-03-01T14:28:08.239Z,38.80
2018-03-01T14:30:40.753Z,37.58
2018-03-01T14:33:13.253Z,36.73
2018-03-01T14:35:45.777Z,37.26
2018-03-01T14:38:18.333Z,37.06
2018-03-01T14:40:50.852Z,36.89
2018-03-01T14:43:23.341Z,36.30
2018-03-01T14:45:55.868Z,37.24
2018-03-01T14:48:28.384Z,37.36
2018-03-01T14:51:00.915Z,37.30
2018-03-01T14:53:33.409Z,37.16
2018-03-01T14:56:05.945Z,37.08
2018-03-01T14:58:38.464Z,37.87
2018-03-01T15:01:10.987Z,38.26
2018-03-01T15:03:43.508Z,38.05
2018-03-01T15:06:16.038Z,37.27
2018-03-01T15:08:48.537Z,36.96
2018-03-01T15:11:21.102Z,37.20
2018-03-01T15:13:53.613Z,38.12
2018-03-01T15:16:26.129Z,37.70
2018-03-01T15:18:58.685Z,37.82
2018-03-01T15:21:31.213Z,37.69
2018-03-01T15:24:03.721Z,37.81
2018-03-01T15:26:36.256Z,38.31
2018-03-01T15:29:08.845Z,38.15
2018-03-01T15:31:41.372Z,37.25
2018-03-01T15:34:13.883Z,37.88
2018-03-01T15:36:46.409Z,37.65
2018-03-01T15:39:18.918Z,37.91
2018-03-01T15:41:51.446Z,38.01
2018-03-01T15:44:23.950Z,38.29
2018-03-01T15:46:56.486Z,38.77
2018-03-01T15:49:29.112Z,38.75
2018-03-01T15:52:01.575Z,38.50
2018-03-01T15:54:34.088Z,38.92
2018-03-01T15:57:06.623Z,38.44
2018-03-01T15:59:39.153Z,38.30
2018-03-01T16:02:11.689Z,38.33
2018-03-01T16:04:44.191Z,38.93
2018-03-01T16:07:17.299Z,39.52
2018-03-01T16:09:49.872Z,38.99
2018-03-01T16:12:22.395Z,38.97
2018-03-01T16:14:54.914Z,40.26
2018-03-01T16:17:27.452Z,39.71
2018-03-01T16:20:00.254Z,39.92
2018-03-01T16:22:32.812Z,39.78
2018-03-01T16:25:05.376Z,39.83
2018-03-01T16:27:38.008Z,39.43
2018-03-01T16:30:10.643Z,40.64
2018-03-01T16:32:43.460Z,40.54
2018-03-01T16:35:16.453Z,39.95
2018-03-01T16:37:49.418Z,41.69
2018-03-01T16:40:22.326Z,40.24
2018-03-01T16:42:54.987Z,39.88
2018-03-01T16:45:27.520Z,40.21
2018-03-01T16:48:00.168Z,40.74
2018-03-01T16:50:32.664Z,40.27
2018-03-01T16:53:05.191Z,40.99
2018-03-01T16:55:37.678Z,40.60
2018-03-01T16:58:10.201Z,40.71
2018-03-01T17:00:42.743Z,40.74
2018-03-01T17:03:15.257Z,41.00
2018-03-01T17:05:47.792Z,41.29
2018-03-01T17:08:21.232Z,40.81
2018-03-01T17:10:53.759Z,40.61
2018-03-01T17:13:26.301Z,41.65
2018-03-01T17:15:58.838Z,41.42
2018-03-01T17:18:31.366Z,40.85
2018-03-01T17:21:03.955Z,40.88
2018-03-01T17:23:36.510Z,41.03
2018-03-01T17:26:09.107Z,41.13
2018-03-01T17:28:41.615Z,41.56
2018-03-01T17:31:14.309Z,40.98
2018-03-01T17:33:46.833Z,41.63
2018-03-01T17:36:19.456Z,41.26
2018-03-01T17:38:52.073Z,41.30
2018-03-01T17:41:24.620Z,41.22
2018-03-01T17:43:57.138Z,42.06
2018-03-01T17:46:29.659Z,41.62
2018-03-01T17:49:02.165Z,41.83
2018-03-01T17:51:34.780Z,41.19
2018-03-01T17:54:07.303Z,41.36
2018-03-01T17:56:39.825Z,41.36
2018-03-01T17:59:12.334Z,42.87
2018-03-01T18:01:44.869Z,42.12
2018-03-01T18:04:17.382Z,41.78
2018-03-01T18:06:49.903Z,41.37
2018-03-01T18:09:22.395Z,41.92
2018-03-01T18:11:54.949Z,42.44
2018-03-01T18:14:27.460Z,42.68
2018-03-01T18:17:00.077Z,43.12
2018-03-01T18:19:32.606Z,42.27
2018-03-01T18:22:05.144Z,42.70
2018-03-01T18:24:37.778Z,43.15
2018-03-01T18:27:10.333Z,43.93
2018-03-01T18:29:42.844Z,43.12
2018-03-01T18:32:16.417Z,42.95
2018-03-01T18:34:48.933Z,42.91
2018-03-01T18:37:24.862Z,42.98
2018-03-01T18:39:58.008Z,43.81
2018-03-01T18:42:30.705Z,43.78
2018-03-01T18:45:03.222Z,42.92
2018-03-01T18:47:40.896Z,43.21
2018-03-01T18:50:16.317Z,43.49
2018-03-01T18:52:48.858Z,43.01
2018-03-01T18:55:26.390Z,44.62
2018-03-01T18:58:00.045Z,44.21
2018-03-01T19:00:32.564Z,44.73
2018-03-01T19:03:05.104Z,44.16
2018-03-01T19:05:37.620Z,43.56
2018-03-01T19:08:10.155Z,44.42
2018-03-01T19:10:42.657Z,44.23
2018-03-01T19:13:15.265Z,44.34
2018-03-01T19:15:47.745Z,44.95
2018-03-01T19:18:20.315Z,44.95
2018-03-01T19:20:52.939Z,44.19
2018-03-01T19:23:25.479Z,43.96
2018-03-01T19:25:58.080Z,44.21
2018-03-01T19:28:30.607Z,43.57
2018-03-01T19:31:03.224Z,44.88
2018-03-01T19:33:35.777Z,43.76
2018-03-01T19:36:08.314Z,44.28
2018-03-01T19:38:41.710Z,45.12
2018-03-01T19:41:14.456Z,44.09
2018-03-01T19:43:47.022Z,44.02
2018-03-01T19:46:19.527Z,44.06
2018-03-01T19:48:52.061Z,44.30
2018-03-01T19:51:24.562Z,44.00
2018-03-01T19:53:57.106Z,45.10
2018-03-01T19:56:29.604Z,44.76
2018-03-01T19:59:02.188Z,44.69
2018-03-01T20:01:34.682Z,45.61
2018-03-01T20:04:07.222Z,44.53
2018-03-01T20:06:39.728Z,44.50
2018-03-01T20:09:12.257Z,45.09
2018-03-01T20:11:44.758Z,44.21
2018-03-01T20:14:17.575Z,44.39
2018-03-01T20:16:50.155Z,46.22
2018-03-01T20:19:22.656Z,44.49
2018-03-01T20:21:55.168Z,44.30
2018-03-01T20:24:27.660Z,44.08
2018-03-01T20:27:00.184Z,44.16
2018-03-01T20:29:32.685Z,45.51
2018-03-01T20:32:05.197Z,44.47
2018-03-01T20:34:37.698Z,44.62
2018-03-01T20:37:10.331Z,44.94
2018-03-01T20:39:43.667Z,45.38
2018-03-01T20:42:16.191Z,45.21
2018-03-01T20:44:48.757Z,44.96
2018-03-01T20:47:21.301Z,46.27
2018-03-01T20:49:53.797Z,45.85
2018-03-01T20:52:26.321Z,44.92
2018-03-01T20:54:58.881Z,44.81
2018-03-01T20:57:31.408Z,45.52
2018-03-01T21:00:03.906Z,45.17
2018-03-01T21:02:36.446Z,45.40
2018-03-01T21:05:08.945Z,44.88
2018-03-01T21:07:41.482Z,44.99
2018-03-01T21:10:13.988Z,44.88
2018-03-01T21:12:46.506Z,44.59
2018-03-01T21:15:19.110Z,46.06
2018-03-01T21:17:51.837Z,45.20
2018-03-01T21:20:26.482Z,45.30
2018-03-01T21:22:59.078Z,45.07
2018-03-01T21:25:31.782Z,45.69
2018-03-01T21:28:04.322Z,46.18
2018-03-01T21:30:36.867Z,45.00
2018-03-01T21:33:09.410Z,45.51
2018-03-01T21:35:41.937Z,45.12
2018-03-01T21:38:14.536Z,45.21
2018-03-01T21:40:47.042Z,45.43
2018-03-01T21:43:19.581Z,44.62
2018-03-01T21:45:52.085Z,44.39
2018-03-01T21:48:24.626Z,44.30
2018-03-01T21:50:57.144Z,44.66
2018-03-01T21:53:29.712Z,44.82
2018-03-01T21:56:02.207Z,44.65
2018-03-01T21:58:34.724Z,45.06
2018-03-01T22:01:07.227Z,46.52
2018-03-01T22:03:39.766Z,44.87
2018-03-01T22:06:12.281Z,44.78
2018-03-01T22:08:44.820Z,44.49
2018-03-01T22:11:17.361Z,45.80
2018-03-01T22:13:49.902Z,45.02
2018-03-01T22:16:22.412Z,44.58
2018-03-01T22:18:54.944Z,46.09
2018-03-01T22:21:27.481Z,45.36
2018-03-01T22:24:00.025Z,44.66
2018-03-01T22:26:33.904Z,44.11
2018-03-01T22:29:06.435Z,44.83
2018-03-01T22:31:38.939Z,44.48
2018-03-01T22:34:11.485Z,44.74
2018-03-01T22:36:43.988Z,44.46
2018-03-01T22:39:16.602Z,43.94
2018-03-01T22:41:49.192Z,44.35
2018-03-01T22:44:21.716Z,43.91
2018-03-01T22:46:54.302Z,43.46
2018-03-01T22:49:26.835Z,43.98
2018-03-01T22:51:59.341Z,43.79
2018-03-01T22:54:31.880Z,43.79
2018-03-01T22:57:04.400Z,44.14
2018-03-01T22:59:36.940Z,43.76
2018-03-01T23:02:09.456Z,43.37
2018-03-01T23:04:41.973Z,43.75
2018-03-01T23:07:14.516Z,44.12
2018-03-01T23:09:47.059Z,43.94
2018-03-01T23:12:19.568Z,44.41
2018-03-01T23:14:52.102Z,43.99
2018-03-01T23:17:24.612Z,43.59
2018-03-01T23:19:57.181Z,43.98
2018-03-01T23:22:29.672Z,44.37
2018-03-01T23:25:02.209Z,45.15
2018-03-01T23:27:34.719Z,44.05
2018-03-01T23:30:08.427Z,43.95
2018-03-01T23:32:40.948Z,44.50
2018-03-01T23:35:13.488Z,44.09
2018-03-01T23:37:46.013Z,44.54
2018-03-01T23:40:18.535Z,44.13
2018-03-01T23:42:51.042Z,44.47
2018-03-01T23:45:23.586Z,43.92
2018-03-01T23:47:56.170Z,44.71
2018-03-01T23:50:28.703Z,44.19
2018-03-01T23:53:01.209Z,44.65
2018-03-01T23:55:33.752Z,44.40
2018-03-01T23:58:06.259Z,44.99
